createdAt,value
2023-02-24T00:02:30.224Z,95949.50
2023-02-24T00:05:19.820Z,95945.53
2023-02-24T00:08:08.487Z,95941.41
2023-02-24T00:10:58.132Z,95938.25
2023-02-24T00:13:48.398Z,95941.06
2023-02-24T00:16:38.669Z,95943.66
2023-02-24T00:19:29.334Z,95945.28
2023-02-24T00:22:18.821Z,95936.25
2023-02-24T00:25:08.725Z,95935.19
2023-02-24T00:28:01.974Z,95942.97
2023-02-24T00:30:52.237Z,95935.19
2023-02-24T00:33:43.066Z,95939.31
2023-02-24T00:36:33.863Z,95930.63
2023-02-24T00:39:30.770Z,95921.94
2023-02-24T00:42:19.908Z,95908.09
2023-02-24T00:45:10.345Z,95911.66
2023-02-24T00:48:01.265Z,95922.91
2023-02-24T00:50:52.282Z,95918.00
2023-02-24T00:53:42.281Z,95914.22
2023-02-24T00:56:31.403Z,95908.94
2023-02-24T00:59:21.222Z,95900.00
2023-02-24T01:02:11.436Z,95908.69
2023-02-24T01:05:05.599Z,95902.69
2023-02-24T01:07:55.067Z,95910.22
2023-02-24T01:11:04.143Z,95896.72
2023-02-24T01:13:52.278Z,95894.28
2023-02-24T01:16:42.013Z,95904.25
2023-02-24T01:19:32.785Z,95900.63
2023-02-24T01:22:26.410Z,95891.47
2023-02-24T01:25:15.800Z,95881.06
2023-02-24T01:28:05.090Z,95889.84
2023-02-24T01:30:56.286Z,95883.97
2023-02-24T01:33:46.291Z,95883.97
2023-02-24T01:36:35.800Z,95880.31
2023-02-24T01:39:26.165Z,95880.91
2023-02-24T01:42:20.064Z,95870.81
2023-02-24T01:45:21.824Z,95871.75
2023-02-24T01:48:13.990Z,95872.69
2023-02-24T01:51:02.670Z,95867.78
2023-02-24T01:53:52.696Z,95867.78
2023-02-24T01:56:44.276Z,95864.50
2023-02-24T01:59:36.214Z,95859.91
2023-02-24T02:02:27.388Z,95862.16
2023-02-24T02:05:16.537Z,95855.25
2023-02-24T02:08:05.816Z,95855.59
2023-02-24T02:10:59.208Z,95845.03
2023-02-24T02:13:52.186Z,95836.94
2023-02-24T02:16:54.531Z,95843.06
2023-02-24T02:20:02.661Z,95849.03
2023-02-24T02:23:24.145Z,95848.53
2023-02-24T02:26:47.344Z,95835.53
2023-02-24T02:29:59.810Z,95831.69
2023-02-24T02:33:08.198Z,95817.03
2023-02-24T02:36:13.908Z,95820.91
2023-02-24T02:39:13.032Z,95824.66
2023-02-24T02:42:14.782Z,95824.19
2023-02-24T02:45:09.783Z,95819.75
2023-02-24T02:48:06.365Z,95822.47
2023-02-24T02:51:04.244Z,95812.88
2023-02-24T02:54:02.750Z,95811.72
2023-02-24T02:56:59.256Z,95818.00
2023-02-24T02:59:52.089Z,95820.94
2023-02-24T03:02:44.859Z,95819.88
2023-02-24T03:05:38.887Z,95813.53
2023-02-24T03:08:34.801Z,95816.47
2023-02-24T03:11:25.625Z,95809.53
2023-02-24T03:14:17.172Z,95806.16
2023-02-24T03:17:10.668Z,95805.72
2023-02-24T03:20:16.614Z,95808.91
2023-02-24T03:23:10.905Z,95807.38
2023-02-24T03:26:08.962Z,95816.97
2023-02-24T03:29:07.985Z,95812.97
2023-02-24T03:32:01.967Z,95811.47
2023-02-24T03:34:55.539Z,95806.97
2023-02-24T03:37:48.438Z,95809.41
2023-02-24T03:40:39.392Z,95805.09
2023-02-24T03:43:32.782Z,95809.78
2023-02-24T03:46:25.036Z,95804.88
2023-02-24T03:49:17.594Z,95770.94
2023-02-24T03:52:23.041Z,95793.63
2023-02-24T03:55:23.530Z,95786.63
2023-02-24T03:58:19.591Z,95790.97
2023-02-24T04:01:14.769Z,95781.50
2023-02-24T04:04:14.578Z,95756.56
2023-02-24T04:07:16.760Z,95790.66
2023-02-24T04:10:10.572Z,95793.91
2023-02-24T04:13:11.587Z,95787.22
2023-02-24T04:16:05.143Z,95783.13
2023-02-24T04:18:54.414Z,95775.06
2023-02-24T04:21:48.422Z,95770.72
2023-02-24T04:24:48.379Z,95775.63
2023-02-24T04:27:37.230Z,95752.56
2023-02-24T04:30:40.359Z,95763.47
2023-02-24T04:33:29.149Z,95762.72
2023-02-24T04:36:19.498Z,95760.28
2023-02-24T04:39:10.061Z,95741.31
2023-02-24T04:41:59.401Z,95749.50
2023-02-24T04:44:48.483Z,95747.41
2023-02-24T04:47:38.350Z,95743.03
2023-02-24T04:50:28.427Z,95741.28
2023-02-24T04:53:18.842Z,95734.97
2023-02-24T04:56:10.177Z,95734.97
2023-02-24T04:58:58.813Z,95728.31
2023-02-24T05:01:52.042Z,95723.28
2023-02-24T05:04:41.076Z,95730.19
2023-02-24T05:07:31.316Z,95727.25
2023-02-24T05:10:20.186Z,95728.66
2023-02-24T05:13:14.428Z,95726.19
2023-02-24T05:16:07.844Z,95689.78
2023-02-24T05:19:10.599Z,95716.09
2023-02-24T05:22:02.660Z,95715.88
2023-02-24T05:24:51.756Z,95712.69
2023-02-24T05:27:40.437Z,95709.19
2023-02-24T05:30:30.566Z,95707.66
2023-02-24T05:33:21.556Z,95702.97
2023-02-24T05:36:12.505Z,95686.13
2023-02-24T05:39:07.515Z,95698.91
2023-02-24T05:41:57.233Z,95703.44
2023-02-24T05:44:46.944Z,95700.91
2023-02-24T05:47:37.238Z,95661.59
2023-02-24T05:50:27.134Z,95694.22
2023-02-24T05:53:16.607Z,95696.78
2023-02-24T05:56:07.179Z,95699.59
2023-02-24T05:59:02.058Z,95690.13
2023-02-24T06:01:53.982Z,95682.63
2023-02-24T06:04:51.884Z,95681.22
2023-02-24T06:07:40.701Z,95686.38
2023-02-24T06:10:33.832Z,95671.25
2023-02-24T06:13:22.485Z,95679.34
2023-02-24T06:16:13.585Z,95683.19
2023-02-24T06:19:02.542Z,95689.38
2023-02-24T06:21:54.479Z,95672.91
2023-02-24T06:24:44.367Z,95678.63
2023-02-24T06:27:34.220Z,95684.69
2023-02-24T06:30:24.843Z,95685.75
2023-02-24T06:33:14.397Z,95687.94
2023-02-24T06:36:04.689Z,95683.41
2023-02-24T06:38:56.740Z,95691.00
2023-02-24T06:41:45.704Z,95679.28
2023-02-24T06:44:36.912Z,95674.63
2023-02-24T06:47:26.954Z,95679.78
2023-02-24T06:50:19.600Z,95676.16
2023-02-24T06:53:16.843Z,95651.13
2023-02-24T06:56:15.737Z,95669.13
2023-02-24T06:59:05.324Z,95677.66
2023-02-24T07:01:54.518Z,95669.97
2023-02-24T07:04:45.860Z,95678.03
2023-02-24T07:07:34.481Z,95675.25
2023-02-24T07:10:24.040Z,95677.94
2023-02-24T07:13:16.120Z,95682.38
2023-02-24T07:16:07.233Z,95683.03
2023-02-24T07:18:57.540Z,95675.09
2023-02-24T07:21:50.548Z,95678.00
2023-02-24T07:24:45.043Z,95671.31
2023-02-24T07:27:34.642Z,95676.94
2023-02-24T07:30:26.125Z,95661.25
2023-02-24T07:33:15.321Z,95666.31
2023-02-24T07:36:08.662Z,95670.88
2023-02-24T07:38:59.347Z,95667.22
2023-02-24T07:41:49.794Z,95663.78
2023-02-24T07:44:38.987Z,95665.88
2023-02-24T07:47:29.965Z,95654.69
2023-02-24T07:50:19.287Z,95666.16
2023-02-24T07:53:10.302Z,95660.75
2023-02-24T07:55:58.953Z,95651.00
2023-02-24T07:58:51.326Z,95645.88
2023-02-24T08:01:39.996Z,95641.06
2023-02-24T08:04:33.945Z,95638.84
2023-02-24T08:07:25.633Z,95636.97
2023-02-24T08:10:25.159Z,95623.31
2023-02-24T08:13:14.004Z,95630.00
2023-02-24T08:16:07.703Z,95614.81
2023-02-24T08:18:57.838Z,95628.31
2023-02-24T08:21:51.007Z,95624.38
2023-02-24T08:24:39.654Z,95626.81
2023-02-24T08:27:31.524Z,95618.03
2023-02-24T08:30:23.893Z,95613.38
2023-02-24T08:33:16.829Z,95618.13
2023-02-24T08:36:06.611Z,95610.13
2023-02-24T08:38:59.715Z,95612.84
2023-02-24T08:41:51.969Z,95610.63
2023-02-24T08:44:42.443Z,95616.50
2023-02-24T08:47:37.109Z,95615.28
2023-02-24T08:50:31.091Z,95607.25
2023-02-24T08:53:20.271Z,95609.31
2023-02-24T08:56:12.351Z,95602.91
2023-02-24T08:59:06.348Z,95573.78
2023-02-24T09:02:14.796Z,95592.91
2023-02-24T09:05:13.177Z,95585.53
2023-02-24T09:08:05.103Z,95588.00
2023-02-24T09:10:53.732Z,95591.09
2023-02-24T09:13:53.007Z,95595.69
2023-02-24T09:16:52.408Z,95584.88
2023-02-24T09:20:00.586Z,95581.28
2023-02-24T09:23:00.765Z,95579.00
2023-02-24T09:25:54.337Z,95553.81
2023-02-24T09:28:55.139Z,95585.50
2023-02-24T09:31:55.816Z,95571.75
2023-02-24T09:34:44.780Z,95570.13
2023-02-24T09:37:33.816Z,95576.19
2023-02-24T09:40:40.177Z,95574.88
2023-02-24T09:43:30.985Z,95556.53
2023-02-24T09:46:21.805Z,95570.94
2023-02-24T09:49:19.088Z,95564.41
2023-02-24T09:52:16.949Z,95569.16
2023-02-24T09:55:25.548Z,95564.63
2023-02-24T09:58:34.779Z,95572.41
2023-02-24T10:01:43.314Z,95571.19
2023-02-24T10:05:07.208Z,95558.50
2023-02-24T10:07:59.596Z,95563.81
2023-02-24T10:11:06.987Z,95559.56
2023-02-24T10:14:03.355Z,95556.25
2023-02-24T10:17:09.858Z,95542.78
2023-02-24T10:20:14.382Z,95544.56
2023-02-24T10:23:09.761Z,95534.94
2023-02-24T10:26:07.296Z,95535.56
2023-02-24T10:29:09.406Z,95526.38
2023-02-24T10:32:17.046Z,95521.13
2023-02-24T10:35:14.448Z,95520.03
2023-02-24T10:38:05.732Z,95510.31
2023-02-24T10:40:57.616Z,95515.56
2023-02-24T10:43:56.490Z,95505.00
2023-02-24T10:46:46.637Z,95507.75
2023-02-24T10:49:42.956Z,95492.63
2023-02-24T10:53:10.935Z,95501.09
2023-02-24T10:56:26.747Z,95488.59
2023-02-24T10:59:48.802Z,95483.38
2023-02-24T11:02:57.082Z,95481.16
2023-02-24T11:06:08.177Z,95472.72
2023-02-24T11:09:19.592Z,95465.19
2023-02-24T11:12:34.172Z,95464.69
2023-02-24T11:15:45.812Z,95461.97
2023-02-24T11:18:35.851Z,95447.38
2023-02-24T11:21:28.681Z,95440.09
2023-02-24T11:24:20.312Z,95449.38
2023-02-24T11:27:11.748Z,95436.09
2023-02-24T11:30:14.930Z,95439.41
2023-02-24T11:33:22.713Z,95429.34
2023-02-24T11:36:22.703Z,95436.91
2023-02-24T11:39:32.028Z,95428.38
2023-02-24T11:42:26.235Z,95427.63
2023-02-24T11:45:26.345Z,95411.41
2023-02-24T11:48:19.790Z,95404.22
2023-02-24T11:51:13.190Z,95399.19
2023-02-24T11:54:05.213Z,95392.63
2023-02-24T11:56:59.146Z,95392.97
2023-02-24T11:59:54.061Z,95380.84
2023-02-24T12:02:49.301Z,95373.00
2023-02-24T12:05:42.188Z,95380.59
2023-02-24T12:08:36.124Z,95367.91
2023-02-24T12:11:35.374Z,95360.03
2023-02-24T12:14:33.852Z,95360.31
2023-02-24T12:17:32.051Z,95355.44
2023-02-24T12:20:27.979Z,95351.16
2023-02-24T12:23:19.048Z,95344.91
2023-02-24T12:26:18.766Z,95336.50
2023-02-24T12:29:20.820Z,95328.38
2023-02-24T12:32:25.147Z,95337.03
2023-02-24T12:35:22.027Z,95331.88
2023-02-24T12:38:28.783Z,95323.75
2023-02-24T12:41:36.303Z,95310.50
2023-02-24T12:44:35.464Z,95314.56
2023-02-24T12:47:36.572Z,95305.94
2023-02-24T12:50:37.618Z,95310.56
2023-02-24T12:53:35.446Z,95307.28
2023-02-24T12:56:28.081Z,95288.63
2023-02-24T12:59:23.226Z,95282.69
2023-02-24T13:02:21.123Z,95281.34
2023-02-24T13:05:20.237Z,95284.03
2023-02-24T13:08:29.589Z,95278.63
2023-02-24T13:11:28.548Z,95276.44
2023-02-24T13:14:25.533Z,95267.78
2023-02-24T13:17:22.523Z,95262.09
2023-02-24T13:20:15.110Z,95258.84
2023-02-24T13:23:20.250Z,95262.66
2023-02-24T13:26:10.384Z,95247.75
2023-02-24T13:29:02.611Z,95253.72
2023-02-24T13:31:53.325Z,95247.19
2023-02-24T13:34:46.070Z,95253.44
2023-02-24T13:37:38.871Z,95235.56
2023-02-24T13:40:28.580Z,95228.78
2023-02-24T13:43:28.812Z,95228.00
2023-02-24T13:46:19.601Z,95223.38
2023-02-24T13:49:29.106Z,95219.56
2023-02-24T13:52:30.371Z,95212.81
2023-02-24T13:55:32.960Z,95211.47
2023-02-24T13:58:35.423Z,95210.66
2023-02-24T14:01:34.191Z,95192.78
2023-02-24T14:04:28.338Z,95203.63
2023-02-24T14:07:23.639Z,95198.47
2023-02-24T14:10:19.475Z,95196.31
2023-02-24T14:13:17.718Z,95188.16
2023-02-24T14:16:13.735Z,95167.59
2023-02-24T14:19:04.027Z,95171.13
2023-02-24T14:21:56.176Z,95175.72
2023-02-24T14:24:44.812Z,95173.28
2023-02-24T14:27:34.910Z,95156.22
2023-02-24T14:30:33.123Z,95154.03
2023-02-24T14:33:29.408Z,95158.91
2023-02-24T14:36:21.719Z,95149.16
2023-02-24T14:39:17.421Z,95151.34
2023-02-24T14:42:13.237Z,95161.59
2023-02-24T14:45:02.888Z,95150.25
2023-02-24T14:47:53.306Z,95146.44
2023-02-24T14:50:43.433Z,95142.69
2023-02-24T14:53:36.923Z,95138.31
2023-02-24T14:56:32.660Z,95128.84
2023-02-24T14:59:29.974Z,95122.63
2023-02-24T15:02:22.100Z,95115.06
2023-02-24T15:05:12.698Z,95110.19
2023-02-24T15:08:03.966Z,95090.97
2023-02-24T15:10:53.299Z,95098.28
2023-02-24T15:13:46.832Z,95091.78
2023-02-24T15:16:40.389Z,95085.28
2023-02-24T15:19:38.280Z,95080.38
2023-02-24T15:22:29.962Z,95070.13
2023-02-24T15:25:28.115Z,95069.03
2023-02-24T15:28:26.305Z,95076.34
2023-02-24T15:31:18.896Z,95085.28
2023-02-24T15:34:18.943Z,95076.34
2023-02-24T15:37:16.106Z,95069.88
2023-02-24T15:40:18.925Z,95083.66
2023-02-24T15:43:11.861Z,95083.41
2023-02-24T15:46:00.649Z,95071.75
2023-02-24T15:48:52.280Z,95063.38
2023-02-24T15:51:42.737Z,95060.91
2023-02-24T15:54:35.714Z,95051.44
2023-02-24T15:57:27.873Z,95063.09
2023-02-24T16:00:21.544Z,95044.69
2023-02-24T16:03:10.519Z,95043.31
2023-02-24T16:06:01.299Z,95041.19
2023-02-24T16:08:53.614Z,95035.25
2023-02-24T16:11:46.641Z,95023.59
2023-02-24T16:14:36.758Z,95021.41
2023-02-24T16:17:32.031Z,95010.63
2023-02-24T16:20:27.373Z,95017.38
2023-02-24T16:23:17.423Z,95007.63
2023-02-24T16:26:06.805Z,94993.06
2023-02-24T16:28:58.150Z,94998.75
2023-02-24T16:31:48.778Z,94990.63
2023-02-24T16:34:37.609Z,94981.69
2023-02-24T16:37:29.807Z,94990.34
2023-02-24T16:40:23.204Z,94986.56
2023-02-24T16:43:13.394Z,94983.56
2023-02-24T16:46:05.353Z,94977.38
2023-02-24T16:48:55.525Z,94985.22
2023-02-24T16:51:44.651Z,94994.66
2023-02-24T16:54:33.744Z,94990.88
2023-02-24T16:57:25.796Z,94989.25
2023-02-24T17:00:17.171Z,94986.84
2023-02-24T17:03:13.412Z,94984.41
2023-02-24T17:06:03.703Z,94983.84
2023-02-24T17:08:52.925Z,94974.94
2023-02-24T17:11:42.013Z,94985.50
2023-02-24T17:14:30.673Z,94986.56
2023-02-24T17:17:20.684Z,94976.56
2023-02-24T17:20:12.462Z,94987.91
2023-02-24T17:23:03.327Z,94988.19
2023-02-24T17:25:55.407Z,94983.59
2023-02-24T17:28:44.734Z,94963.84
2023-02-24T17:31:35.188Z,94959.28
2023-02-24T17:34:24.255Z,94957.91
2023-02-24T17:37:13.438Z,94965.22
2023-02-24T17:40:05.491Z,94969.81
2023-02-24T17:42:55.051Z,94972.00
2023-02-24T17:45:45.406Z,94969.00
2023-02-24T17:48:34.736Z,94961.13
2023-02-24T17:51:23.381Z,94950.84
2023-02-24T17:54:12.546Z,94964.66
2023-02-24T17:57:02.530Z,94959.53
2023-02-24T17:59:52.007Z,94952.78
2023-02-24T18:02:41.446Z,94947.91
2023-02-24T18:05:30.740Z,94943.84
2023-02-24T18:08:19.399Z,94940.84
2023-02-24T18:11:10.479Z,94931.41
2023-02-24T18:14:01.213Z,94928.44
2023-02-24T18:16:50.475Z,94922.19
2023-02-24T18:19:39.689Z,94923.03
2023-02-24T18:22:28.537Z,94912.47
2023-02-24T18:25:17.980Z,94916.25
2023-02-24T18:28:07.628Z,94915.72
2023-02-24T18:30:58.489Z,94899.78
2023-02-24T18:33:47.280Z,94884.94
2023-02-24T18:36:36.014Z,94899.50
2023-02-24T18:39:24.781Z,94891.97
2023-02-24T18:42:13.421Z,94891.16
2023-02-24T18:45:02.852Z,94893.03
2023-02-24T18:47:53.680Z,94906.53
2023-02-24T18:50:43.153Z,94861.44
2023-02-24T18:53:36.799Z,94913.28
2023-02-24T18:56:28.457Z,94904.09
2023-02-24T18:59:17.068Z,94917.31
2023-02-24T19:02:06.371Z,94912.94
2023-02-24T19:04:56.418Z,94909.97
2023-02-24T19:07:45.105Z,94896.44
2023-02-24T19:10:33.781Z,94894.03
2023-02-24T19:13:24.019Z,94901.56
2023-02-24T19:16:13.167Z,94902.38
2023-02-24T19:19:02.088Z,94913.69
2023-02-24T19:21:53.260Z,94913.97
2023-02-24T19:24:41.896Z,94920.72
2023-02-24T19:27:31.127Z,94924.72
2023-02-24T19:30:20.095Z,94930.09
2023-02-24T19:33:09.649Z,94932.22
2023-02-24T19:36:01.104Z,94931.38
2023-02-24T19:38:51.184Z,94943.75
2023-02-24T19:41:41.234Z,94935.09
2023-02-24T19:44:29.876Z,94928.59
2023-02-24T19:47:19.892Z,94922.88
2023-02-24T19:50:09.538Z,94914.81
2023-02-24T19:52:59.122Z,94921.81
2023-02-24T19:55:52.771Z,94923.16
2023-02-24T19:58:41.993Z,94915.53
2023-02-24T20:01:31.746Z,94916.59
2023-02-24T20:04:22.892Z,94906.88
2023-02-24T20:07:11.773Z,94916.09
2023-02-24T20:10:01.680Z,94915.34
2023-02-24T20:12:51.690Z,94906.69
2023-02-24T20:15:41.225Z,94911.56
2023-02-24T20:18:31.025Z,94902.59
2023-02-24T20:21:20.153Z,94906.91
2023-02-24T20:24:13.180Z,94912.81
2023-02-24T20:27:05.079Z,94911.72
2023-02-24T20:29:55.879Z,94914.94
2023-02-24T20:32:45.084Z,94904.13
2023-02-24T20:35:34.102Z,94910.28
2023-02-24T20:38:23.064Z,94903.00
2023-02-24T20:41:12.478Z,94898.69
2023-02-24T20:44:01.118Z,94904.31
2023-02-24T20:46:51.681Z,94891.34
2023-02-24T20:49:40.472Z,94893.78
2023-02-24T20:52:30.311Z,94895.41
2023-02-24T20:55:18.993Z,94892.97
2023-02-24T20:58:08.198Z,94887.03
2023-02-24T21:00:57.310Z,94882.41
2023-02-24T21:03:47.922Z,94868.69
2023-02-24T21:06:37.623Z,94873.03
2023-02-24T21:09:27.435Z,94866.25
2023-02-24T21:12:16.086Z,94865.66
2023-02-24T21:15:06.867Z,94859.22
2023-02-24T21:17:55.746Z,94863.53
2023-02-24T21:20:45.829Z,94863.50
2023-02-24T21:23:35.008Z,94864.84
2023-02-24T21:26:26.778Z,94869.16
2023-02-24T21:29:15.661Z,94862.38
2023-02-24T21:32:05.352Z,94868.91
2023-02-24T21:34:54.018Z,94868.03
2023-02-24T21:37:44.037Z,94869.13
2023-02-24T21:40:32.693Z,94865.63
2023-02-24T21:43:23.140Z,94882.84
2023-02-24T21:46:14.514Z,94901.59
2023-02-24T21:49:03.670Z,94898.66
2023-02-24T21:51:54.734Z,94905.03
2023-02-24T21:54:45.276Z,94901.47
2023-02-24T21:57:40.996Z,94902.22
2023-02-24T22:00:30.295Z,94891.41
2023-02-24T22:03:19.045Z,94857.00
2023-02-24T22:06:11.151Z,94914.78
2023-02-24T22:09:00.899Z,94918.66
2023-02-24T22:11:51.622Z,94916.22
2023-02-24T22:14:40.264Z,94909.47
2023-02-24T22:17:29.786Z,94898.66
2023-02-24T22:20:18.726Z,94908.34
2023-02-24T22:23:08.203Z,94906.41
2023-02-24T22:25:56.811Z,94910.16
2023-02-24T22:28:48.996Z,94899.16
2023-02-24T22:31:39.127Z,94903.47
2023-02-24T22:34:29.561Z,94904.03
2023-02-24T22:37:18.364Z,94919.59
2023-02-24T22:40:09.665Z,94930.63
2023-02-24T22:42:58.718Z,94945.94
2023-02-24T22:45:57.012Z,94943.56
2023-02-24T22:48:46.452Z,94945.81
2023-02-24T22:51:35.725Z,94939.81
2023-02-24T22:54:25.366Z,94946.47
2023-02-24T22:57:14.720Z,94953.44
2023-02-24T23:00:09.839Z,94953.34
2023-02-24T23:02:59.888Z,94928.59
2023-02-24T23:05:55.920Z,94930.41
2023-02-24T23:08:47.150Z,94922.88
2023-02-24T23:11:38.958Z,94923.50
2023-02-24T23:14:28.523Z,94950.69
2023-02-24T23:17:17.771Z,94959.00
2023-02-24T23:20:13.597Z,94958.09
2023-02-24T23:23:02.662Z,94963.47
2023-02-24T23:25:52.967Z,94963.13
2023-02-24T23:28:41.832Z,94957.50
2023-02-24T23:31:31.496Z,94980.88
2023-02-24T23:34:21.150Z,94974.69
2023-02-24T23:37:13.356Z,94980.56
2023-02-24T23:40:03.681Z,94991.44
2023-02-24T23:42:53.025Z,94992.41
2023-02-24T23:45:42.741Z,95009.59
2023-02-24T23:48:32.502Z,95013.66
2023-02-24T23:51:22.739Z,95026.75
2023-02-24T23:54:14.125Z,95029.09
2023-02-24T23:57:03.745Z,95032.34
2023-02-24T23:59:52.387Z,95036.00
